createdAt,value
2019-03-13T00:04:27.133Z,5.70
2019-03-13T00:09:56.439Z,5.80
2019-03-13T00:15:26.923Z,5.80
2019-03-13T00:20:56.315Z,5.80
2019-03-13T00:26:25.715Z,5.80
2019-03-13T00:31:55.090Z,5.80
2019-03-13T00:37:24.538Z,5.70
2019-03-13T00:42:53.853Z,5.70
2019-03-13T00:48:23.182Z,5.60
2019-03-13T00:53:52.614Z,5.50
2019-03-13T00:59:21.919Z,5.40
2019-03-13T01:04:52.935Z,5.30
2019-03-13T01:10:22.370Z,5.20
2019-03-13T01:15:51.669Z,5.20
2019-03-13T01:21:21.125Z,5.20
2019-03-13T01:26:50.419Z,5.20
2019-03-13T01:32:33.369Z,5.30
2019-03-13T01:38:02.770Z,5.60
2019-03-13T01:43:32.174Z,6.80
2019-03-13T01:49:01.468Z,7.90
2019-03-13T01:54:30.973Z,8.80
2019-03-13T02:00:00.452Z,9.50
2019-03-13T02:05:29.866Z,9.90
2019-03-13T02:10:59.282Z,10.10
2019-03-13T02:16:30.680Z,10.10
2019-03-13T02:22:00.070Z,10.10
2019-03-13T02:27:29.409Z,10.00
2019-03-13T02:32:58.717Z,9.90
2019-03-13T02:38:28.038Z,9.80
2019-03-13T02:43:57.508Z,9.70
2019-03-13T02:49:26.887Z,9.60
2019-03-13T02:54:56.273Z,9.40
2019-03-13T03:00:27.739Z,9.30
2019-03-13T03:05:59.170Z,9.10
2019-03-13T03:11:28.464Z,8.90
2019-03-13T03:16:57.925Z,8.70
2019-03-13T03:22:27.248Z,8.40
2019-03-13T03:27:56.573Z,8.10
2019-03-13T03:33:27.149Z,7.60
2019-03-13T03:38:56.567Z,7.10
2019-03-13T03:44:25.877Z,6.90
2019-03-13T03:49:55.198Z,6.70
2019-03-13T03:55:25.624Z,6.60
2019-03-13T04:00:55.005Z,6.50
2019-03-13T04:06:24.329Z,6.30
2019-03-13T04:11:53.749Z,6.20
2019-03-13T04:17:23.122Z,6.10
2019-03-13T04:22:52.452Z,6.00
2019-03-13T04:28:21.825Z,6.00
2019-03-13T04:33:51.233Z,5.90
2019-03-13T04:39:20.584Z,5.90
2019-03-13T04:44:50.079Z,5.90
2019-03-13T04:50:19.445Z,5.80
2019-03-13T04:55:52.289Z,5.80
2019-03-13T05:01:20.088Z,5.70
2019-03-13T05:06:49.534Z,5.70
2019-03-13T05:12:19.182Z,5.60
2019-03-13T05:17:48.615Z,5.60
2019-03-13T05:23:18.023Z,5.50
2019-03-13T05:28:47.547Z,5.50
2019-03-13T05:34:17.129Z,5.40
2019-03-13T05:39:46.893Z,5.30
2019-03-13T05:45:16.574Z,5.30
2019-03-13T05:50:46.068Z,5.30
2019-03-13T05:56:15.381Z,5.30
2019-03-13T06:01:44.846Z,5.30
2019-03-13T06:07:14.291Z,5.30
2019-03-13T06:12:44.013Z,5.20
2019-03-13T06:18:13.597Z,5.00
2019-03-13T06:23:43.145Z,4.70
2019-03-13T06:29:12.775Z,4.50
2019-03-13T06:34:42.159Z,4.30
2019-03-13T06:40:22.076Z,4.10
2019-03-13T06:45:51.468Z,4.00
2019-03-13T06:51:20.896Z,3.90
2019-03-13T06:56:50.165Z,3.90
2019-03-13T07:02:21.116Z,3.90
2019-03-13T07:07:57.826Z,3.90
2019-03-13T07:13:44.854Z,3.90
2019-03-13T07:19:19.075Z,4.00
2019-03-13T07:25:08.558Z,4.00
2019-03-13T07:30:55.755Z,4.10
2019-03-13T07:36:29.665Z,4.20
2019-03-13T07:42:03.615Z,4.30
2019-03-13T07:47:34.577Z,4.50
2019-03-13T07:53:11.558Z,4.60
2019-03-13T07:58:57.505Z,4.60
2019-03-13T08:04:46.267Z,4.70
2019-03-13T08:10:35.663Z,4.70
2019-03-13T08:16:09.593Z,4.70
2019-03-13T08:21:58.776Z,4.90
2019-03-13T08:27:44.689Z,5.00
2019-03-13T08:33:18.516Z,5.20
2019-03-13T08:38:55.360Z,5.30
2019-03-13T08:44:29.341Z,5.30
2019-03-13T08:50:00.384Z,5.40
2019-03-13T08:55:40.715Z,5.50
2019-03-13T09:01:26.568Z,5.90
2019-03-13T09:07:13.595Z,6.30
2019-03-13T09:12:44.606Z,6.50
2019-03-13T09:18:21.404Z,6.70
2019-03-13T09:24:01.567Z,6.90
2019-03-13T09:29:35.817Z,7.30
2019-03-13T09:35:20.804Z,7.50
2019-03-13T09:40:54.643Z,7.50
2019-03-13T09:46:28.186Z,7.50
2019-03-13T09:52:02.070Z,7.60
2019-03-13T09:57:33.137Z,7.80
2019-03-13T10:03:04.617Z,7.80
2019-03-13T10:08:44.259Z,7.60
2019-03-13T10:14:33.818Z,7.30
2019-03-13T10:20:11.638Z,7.10
2019-03-13T10:25:45.571Z,7.10
2019-03-13T10:31:19.551Z,7.20
2019-03-13T10:36:56.545Z,7.30
2019-03-13T10:42:30.000Z,7.20
2019-03-13T10:48:03.771Z,7.10
2019-03-13T10:53:51.181Z,7.10
2019-03-13T10:59:28.182Z,7.20
2019-03-13T11:04:59.256Z,7.50
2019-03-13T11:10:35.733Z,7.80
2019-03-13T11:16:22.920Z,8.10
2019-03-13T11:22:10.508Z,8.20
2019-03-13T11:27:41.645Z,8.40
2019-03-13T11:33:21.885Z,8.20
2019-03-13T11:38:58.783Z,8.00
2019-03-13T11:44:32.446Z,7.50
2019-03-13T11:50:09.199Z,6.60
2019-03-13T11:55:46.039Z,6.60
2019-03-13T12:01:17.606Z,6.40
2019-03-13T12:06:57.678Z,6.20
2019-03-13T12:12:28.650Z,6.40
2019-03-13T12:18:05.244Z,6.60
2019-03-13T12:23:39.406Z,6.70
2019-03-13T12:29:10.688Z,7.10
2019-03-13T12:34:56.758Z,7.20
2019-03-13T12:46:28.368Z,8.00
2019-03-13T12:52:10.284Z,7.90
2019-03-13T12:57:50.304Z,7.80
2019-03-13T13:03:30.877Z,7.70
2019-03-13T13:09:07.839Z,7.30
2019-03-13T13:14:39.104Z,7.10
2019-03-13T13:20:13.214Z,9.40
2019-03-13T13:25:42.864Z,10.00
2019-03-13T13:31:12.735Z,9.30
2019-03-13T13:36:42.550Z,9.00
2019-03-13T13:42:12.263Z,8.70
2019-03-13T13:47:42.204Z,8.80
2019-03-13T13:53:12.330Z,8.40
2019-03-13T13:58:42.054Z,8.60
2019-03-13T14:04:11.889Z,8.40
2019-03-13T14:09:41.496Z,7.60
2019-03-13T14:15:16.517Z,6.90
2019-03-13T14:20:46.195Z,6.40
2019-03-13T14:26:15.631Z,6.50
2019-03-13T14:31:45.658Z,10.00
2019-03-13T14:37:15.599Z,10.00
2019-03-13T14:42:45.308Z,10.40
2019-03-13T14:48:15.258Z,9.20
2019-03-13T14:53:44.801Z,8.10
2019-03-13T14:59:14.403Z,8.30
2019-03-13T15:04:44.155Z,7.10
2019-03-13T15:10:19.162Z,6.20
2019-03-13T15:15:48.622Z,5.60
2019-03-13T15:21:18.199Z,5.20
2019-03-13T15:26:47.651Z,4.90
2019-03-13T15:32:17.279Z,4.80
2019-03-13T15:37:46.979Z,4.90
2019-03-13T15:43:16.516Z,5.40
2019-03-13T15:48:47.182Z,5.80
2019-03-13T15:54:17.026Z,7.00
2019-03-13T15:59:46.503Z,8.40
2019-03-13T16:05:16.031Z,9.70
2019-03-13T16:10:45.889Z,10.20
2019-03-13T16:16:15.492Z,10.00
2019-03-13T16:21:45.120Z,9.50
2019-03-13T16:27:14.710Z,8.60
2019-03-13T16:32:44.503Z,7.30
2019-03-13T16:38:14.156Z,6.70
2019-03-13T16:43:44.090Z,6.30
2019-03-13T16:49:13.654Z,6.00
2019-03-13T16:54:43.563Z,5.80
2019-03-13T17:00:22.847Z,5.60
2019-03-13T17:05:53.112Z,5.60
2019-03-13T17:11:23.390Z,5.10
2019-03-13T17:17:47.940Z,4.90
2019-03-13T17:23:18.353Z,4.80
2019-03-13T17:28:50.320Z,4.60
2019-03-13T17:34:19.664Z,4.50
2019-03-13T17:39:49.594Z,4.50
2019-03-13T17:45:21.955Z,4.40
2019-03-13T17:50:54.647Z,4.40
2019-03-13T17:56:24.282Z,4.40
2019-03-13T18:01:54.458Z,4.40
2019-03-13T18:07:24.021Z,4.40
2019-03-13T18:12:53.519Z,4.30
2019-03-13T18:18:22.960Z,4.30
2019-03-13T18:23:52.383Z,4.20
2019-03-13T18:30:14.789Z,4.10
2019-03-13T18:35:44.624Z,4.10
2019-03-13T18:41:18.947Z,4.00
2019-03-13T18:46:49.575Z,4.00
2019-03-13T18:52:19.197Z,3.90
2019-03-13T18:57:50.865Z,3.90
2019-03-13T19:09:06.754Z,3.80
2019-03-13T19:20:35.578Z,3.80
2019-03-13T19:26:04.791Z,3.80
2019-03-13T19:31:34.982Z,3.80
2019-03-13T19:37:04.242Z,3.80
2019-03-13T19:42:36.913Z,3.80
2019-03-13T19:48:07.417Z,3.90
2019-03-13T19:53:42.725Z,3.90
2019-03-13T19:59:13.504Z,3.90
2019-03-13T20:04:47.226Z,4.00
2019-03-13T20:10:26.402Z,4.10
2019-03-13T20:15:56.811Z,4.10
2019-03-13T20:21:32.387Z,4.10
2019-03-13T20:27:01.659Z,4.20
2019-03-13T20:32:32.886Z,4.20
2019-03-13T20:38:02.180Z,4.20
2019-03-13T20:43:31.569Z,4.30
2019-03-13T20:49:00.854Z,4.30
2019-03-13T20:54:36.072Z,4.40
2019-03-13T21:00:15.178Z,4.40
2019-03-13T21:05:47.356Z,4.50
2019-03-13T21:11:16.640Z,4.60
2019-03-13T21:16:46.008Z,4.70
2019-03-13T21:22:16.315Z,4.70
2019-03-13T21:27:47.722Z,4.60
2019-03-13T21:33:22.622Z,4.50
2019-03-13T21:38:53.896Z,4.50
2019-03-13T21:44:24.088Z,4.20
2019-03-13T21:49:59.337Z,4.00
2019-03-13T21:55:28.627Z,3.90
2019-03-13T22:00:57.898Z,3.80
2019-03-13T22:06:28.977Z,3.80
2019-03-13T22:11:58.247Z,3.80
2019-03-13T22:17:38.737Z,3.80
2019-03-13T22:23:08.209Z,3.80
2019-03-13T22:28:38.862Z,3.80
2019-03-13T22:34:08.318Z,3.70
2019-03-13T22:39:38.863Z,3.80
2019-03-13T22:45:12.198Z,3.70
2019-03-13T22:50:41.568Z,3.70
2019-03-13T22:56:10.927Z,3.70
2019-03-13T23:01:43.074Z,3.70
2019-03-13T23:07:13.923Z,3.60
2019-03-13T23:12:43.275Z,3.60
2019-03-13T23:18:14.173Z,3.60
2019-03-13T23:23:43.645Z,3.60
2019-03-13T23:29:13.009Z,3.70
2019-03-13T23:34:42.459Z,3.70
2019-03-13T23:40:11.932Z,3.70
2019-03-13T23:45:41.431Z,3.70
2019-03-13T23:51:10.793Z,3.70
2019-03-13T23:56:40.186Z,3.70
